Time;durP1;ratioP1;P1;durP2;ratioP2;P2;SDS_P1;SDS_P2;PMS_P1;PMS_P2;Temp;Humidity;BMP_temperature;BMP_pressure;BME280_temperature;BME280_humidity;BME280_pressure;Samples;Min_cycle;Max_cycle;Signal;HPM_P1;HPM_P2
2023/05/12 03:16:06;;;;;;;1.52;0.10;;;12.10;99.90;;;;;;6161206;22;89598;-72
2023/05/12 03:18:32;;;;;;;1.58;0.10;;;12.10;99.90;;;;;;6252808;22;87164;-73
2023/05/12 03:20:57;;;;;;;1.92;0.10;;;12.10;99.90;;;;;;6253360;22;88139;-71
2023/05/12 03:23:23;;;;;;;8.80;0.20;;;12.20;99.90;;;;;;6253248;22;88143;-70
2023/05/12 03:25:49;;;;;;;0.70;0.10;;;12.20;99.90;;;;;;6253132;22;87239;-72
2023/05/12 03:28:14;;;;;;;1.23;0.20;;;12.20;99.90;;;;;;6254066;22;87323;-72
2023/05/12 03:30:40;;;;;;;3.25;0.20;;;12.20;99.90;;;;;;6253556;22;87493;-72
2023/05/12 03:33:06;;;;;;;2.88;0.30;;;12.20;99.90;;;;;;6253439;22;87853;-71
2023/05/12 03:35:31;;;;;;;1.85;0.20;;;12.20;99.90;;;;;;6251874;22;87557;-71
2023/05/12 03:37:57;;;;;;;2.00;0.22;;;12.20;99.90;;;;;;6251168;22;87059;-71
2023/05/12 03:40:23;;;;;;;2.20;0.40;;;12.20;99.90;;;;;;6251949;22;89471;-72
2023/05/12 03:42:48;;;;;;;1.45;0.30;;;12.20;99.90;;;;;;6253732;22;88604;-72
2023/05/12 03:45:14;;;;;;;5.18;0.40;;;12.20;99.90;;;;;;6253151;22;87492;-72
2023/05/12 03:47:40;;;;;;;2.95;0.57;;;12.20;99.90;;;;;;6253658;22;87335;-71
2023/05/12 03:50:06;;;;;;;3.90;0.43;;;12.30;99.90;;;;;;6254047;22;87535;-72
2023/05/12 03:52:32;;;;;;;2.40;0.57;;;12.30;99.90;;;;;;6251898;22;88468;-71
2023/05/12 03:54:58;;;;;;;2.28;0.45;;;12.30;99.90;;;;;;6252566;22;86999;-71
2023/05/12 03:57:23;;;;;;;1.77;0.52;;;12.30;99.90;;;;;;6254400;22;86319;-71
2023/05/12 03:59:49;;;;;;;2.78;0.60;;;12.20;99.90;;;;;;6253126;22;87948;-71
2023/05/12 04:02:15;;;;;;;4.22;0.88;;;12.30;99.90;;;;;;6251031;22;88220;-71
2023/05/12 04:04:40;;;;;;;2.20;0.68;;;12.20;99.90;;;;;;6252903;22;88026;-71
2023/05/12 04:07:06;;;;;;;2.10;0.60;;;12.20;99.90;;;;;;6254510;22;87395;-70
2023/05/12 04:09:32;;;;;;;4.20;0.60;;;12.20;99.90;;;;;;6253918;22;88142;-71
2023/05/12 04:11:57;;;;;;;2.13;0.75;;;12.30;99.90;;;;;;6251267;22;87727;-70
2023/05/12 04:14:23;;;;;;;2.10;0.80;;;12.30;99.90;;;;;;6251259;22;87266;-72
2023/05/12 04:16:49;;;;;;;3.03;0.50;;;12.40;99.90;;;;;;6263704;22;87371;-73
2023/05/12 04:19:15;;;;;;;2.15;0.50;;;12.40;99.90;;;;;;6284305;22;88058;-70
2023/05/12 04:21:41;;;;;;;4.40;1.20;;;12.40;99.90;;;;;;6285373;22;88002;-71
2023/05/12 04:24:06;;;;;;;2.83;0.85;;;12.50;99.90;;;;;;6284629;22;87243;-70
2023/05/12 04:26:32;;;;;;;3.15;0.63;;;12.60;99.90;;;;;;6285783;22;87706;-73
2023/05/12 04:28:58;;;;;;;1.63;0.60;;;12.60;99.90;;;;;;6253576;22;89077;-72
2023/05/12 04:31:23;;;;;;;4.28;0.95;;;12.60;99.90;;;;;;6284456;22;88760;-71
2023/05/12 04:33:50;;;;;;;4.70;0.95;;;12.70;99.90;;;;;;6284703;22;87043;-75
2023/05/12 04:36:16;;;;;;;1.88;0.52;;;12.80;99.90;;;;;;6285389;22;86930;-75
2023/05/12 04:38:42;;;;;;;3.60;0.93;;;12.80;99.90;;;;;;6284346;22;88315;-75
2023/05/12 04:41:08;;;;;;;3.38;0.73;;;12.90;99.90;;;;;;6284936;22;87535;-76
2023/05/12 04:43:33;;;;;;;2.83;0.90;;;13.00;99.90;;;;;;6283963;22;87294;-73
2023/05/12 04:46:00;;;;;;;3.50;0.85;;;13.00;99.90;;;;;;6254496;22;86610;-73
2023/05/12 04:48:26;;;;;;;2.78;0.90;;;13.10;99.90;;;;;;6282858;22;87357;-75
2023/05/12 04:50:52;;;;;;;2.83;1.02;;;13.10;99.90;;;;;;6284317;22;88095;-74
2023/05/12 04:53:17;;;;;;;3.75;0.82;;;13.20;99.90;;;;;;6284387;22;87799;-73
2023/05/12 04:55:44;;;;;;;4.45;0.90;;;13.30;99.90;;;;;;6285021;22;87143;-76
2023/05/12 04:58:12;;;;;;;2.88;0.80;;;13.20;99.90;;;;;;6284284;22;87665;-75
2023/05/12 05:00:38;;;;;;;3.10;0.70;;;13.30;99.90;;;;;;6282106;22;87090;-75
2023/05/12 05:03:04;;;;;;;4.63;1.10;;;13.20;99.90;;;;;;6282839;22;87152;-74
2023/05/12 05:05:30;;;;;;;2.45;0.88;;;13.10;99.90;;;;;;6281707;22;87849;-76
2023/05/12 05:07:56;;;;;;;3.63;0.65;;;13.10;99.90;;;;;;6281741;22;88241;-74
2023/05/12 05:10:22;;;;;;;2.22;0.85;;;13.10;99.90;;;;;;6281593;22;87898;-77
2023/05/12 05:12:48;;;;;;;2.08;0.57;;;13.20;99.90;;;;;;6279174;22;87226;-75
2023/05/12 05:15:14;;;;;;;3.95;0.80;;;13.10;99.90;;;;;;6281560;22;87423;-75
2023/05/12 05:17:41;;;;;;;2.70;0.90;;;13.20;99.90;;;;;;6275710;22;89017;-74
2023/05/12 05:20:08;;;;;;;1.58;0.60;;;13.30;99.90;;;;;;6278000;22;88686;-74
2023/05/12 05:22:33;;;;;;;2.75;0.43;;;13.40;99.60;;;;;;6282298;22;88645;-74
2023/05/12 05:24:59;;;;;;;2.55;0.52;;;13.40;98.40;;;;;;6279926;22;86961;-73
2023/05/12 05:27:25;;;;;;;1.02;0.35;;;13.60;98.50;;;;;;6283503;22;87943;-73
2023/05/12 05:29:51;;;;;;;2.22;0.60;;;13.80;96.60;;;;;;6283157;22;87204;-74
2023/05/12 05:32:17;;;;;;;2.50;0.40;;;13.80;96.80;;;;;;6279816;22;87272;-74
2023/05/12 05:34:42;;;;;;;2.00;0.52;;;14.00;96.50;;;;;;6284080;22;86250;-73
2023/05/12 05:37:08;;;;;;;1.25;0.40;;;14.20;94.90;;;;;;6282864;22;88006;-75
2023/05/12 05:39:34;;;;;;;1.48;0.40;;;14.50;94.20;;;;;;6283664;22;87260;-75
2023/05/12 05:41:59;;;;;;;2.50;0.43;;;14.60;94.50;;;;;;6282427;22;88037;-74
2023/05/12 05:44:25;;;;;;;1.05;0.30;;;15.00;92.50;;;;;;6281948;22;87455;-75
2023/05/12 05:46:51;;;;;;;2.97;0.30;;;15.40;90.90;;;;;;6282586;22;87793;-74
2023/05/12 05:49:17;;;;;;;3.28;0.35;;;15.60;90.30;;;;;;6279506;22;87454;-74
2023/05/12 05:51:42;;;;;;;1.10;0.20;;;15.50;89.70;;;;;;6280373;22;87687;-73
2023/05/12 05:54:08;;;;;;;1.92;0.30;;;15.60;90.00;;;;;;6281073;22;87031;-74
2023/05/12 05:56:34;;;;;;;1.80;0.30;;;15.60;89.40;;;;;;6282996;22;87454;-75
2023/05/12 05:59:03;;;;;;;1.02;0.30;;;15.90;89.50;;;;;;6284480;22;87679;-74
2023/05/12 06:01:29;;;;;;;3.53;0.32;;;16.10;90.20;;;;;;6284704;22;87060;-74
2023/05/12 06:03:54;;;;;;;6.68;0.43;;;16.50;86.50;;;;;;6284073;22;87394;-75
2023/05/12 06:06:20;;;;;;;1.73;0.32;;;16.80;85.30;;;;;;6279205;22;89386;-75
2023/05/12 06:08:46;;;;;;;2.25;0.22;;;17.00;82.00;;;;;;6281462;22;88030;-74
2023/05/12 06:11:11;;;;;;;2.00;0.40;;;17.20;81.70;;;;;;6283559;22;86981;-74
2023/05/12 06:13:37;;;;;;;2.80;0.30;;;17.30;79.00;;;;;;6284347;22;87319;-74
2023/05/12 06:16:04;;;;;;;2.30;0.40;;;17.60;79.40;;;;;;6283820;22;87516;-73
2023/05/12 06:18:32;;;;;;;8.27;0.60;;;17.70;76.60;;;;;;6283588;22;88297;-74
2023/05/12 06:20:58;;;;;;;1.48;0.45;;;18.00;76.90;;;;;;6284575;22;86932;-72
2023/05/12 06:23:24;;;;;;;1.60;0.30;;;18.20;77.50;;;;;;6284355;22;86608;-74
2023/05/12 06:25:50;;;;;;;1.45;0.35;;;18.40;74.40;;;;;;6281425;22;88177;-75
2023/05/12 06:28:15;;;;;;;1.13;0.38;;;18.70;73.50;;;;;;6283478;22;87782;-72
2023/05/12 06:30:41;;;;;;;2.13;0.30;;;18.90;72.80;;;;;;6283109;22;88277;-75
2023/05/12 06:33:07;;;;;;;1.38;0.73;;;19.40;74.00;;;;;;6284061;22;87354;-72
2023/05/12 06:35:32;;;;;;;2.72;0.60;;;20.20;73.80;;;;;;6283521;22;87856;-72
2023/05/12 06:37:58;;;;;;;1.02;0.40;;;21.70;69.90;;;;;;6283659;22;87790;-71
2023/05/12 06:40:24;;;;;;;4.10;0.52;;;22.60;64.50;;;;;;6281216;22;87396;-72
2023/05/12 06:42:49;;;;;;;1.95;0.80;;;22.80;63.60;;;;;;6278599;22;87479;-73
2023/05/12 06:45:16;;;;;;;2.17;0.40;;;22.90;60.00;;;;;;6283113;22;88598;-72
2023/05/12 06:47:42;;;;;;;1.42;0.65;;;23.00;61.20;;;;;;6283686;22;88373;-73
2023/05/12 06:50:08;;;;;;;1.25;0.70;;;23.30;60.40;;;;;;6282858;22;87415;-73
2023/05/12 06:52:34;;;;;;;2.17;0.95;;;23.80;59.20;;;;;;6284323;22;87706;-74
2023/05/12 06:55:00;;;;;;;1.40;0.80;;;25.40;57.70;;;;;;6283711;22;89362;-73
2023/05/12 06:57:25;;;;;;;1.42;0.90;;;27.40;53.60;;;;;;6284760;22;87608;-74
2023/05/12 06:59:51;;;;;;;3.28;0.95;;;28.80;49.80;;;;;;6282123;22;87630;-77
2023/05/12 07:02:17;;;;;;;1.77;1.13;;;29.70;47.50;;;;;;6284704;22;86987;-74
2023/05/12 07:04:42;;;;;;;2.35;1.15;;;29.10;46.60;;;;;;6256757;22;88695;-74
2023/05/12 07:07:08;;;;;;;1.45;0.88;;;28.20;47.80;;;;;;6284957;22;87235;-73
2023/05/12 07:09:34;;;;;;;1.35;1.00;;;27.30;48.80;;;;;;6284434;22;86940;-74
2023/05/12 07:12:00;;;;;;;4.03;1.92;;;27.40;48.30;;;;;;6285049;22;86591;-74
2023/05/12 07:14:26;;;;;;;1.98;1.63;;;28.60;47.20;;;;;;6281374;22;88542;-75
2023/05/12 07:16:51;;;;;;;2.58;1.42;;;30.70;46.40;;;;;;6283938;22;87379;-75
2023/05/12 07:19:17;;;;;;;2.60;1.30;;;31.30;45.00;;;;;;6283275;22;88145;-75
2023/05/12 07:21:43;;;;;;;3.17;1.63;;;31.10;45.20;;;;;;6285503;22;86884;-79
2023/05/12 07:24:09;;;;;;;1.85;1.30;;;31.60;45.60;;;;;;6283611;22;87879;-77
2023/05/12 07:26:35;;;;;;;2.15;1.25;;;30.90;43.30;;;;;;6284310;22;87711;-72
2023/05/12 07:29:02;;;;;;;1.83;1.63;;;29.50;45.70;;;;;;6284112;22;87491;-73
2023/05/12 07:31:28;;;;;;;2.17;1.40;;;28.00;48.20;;;;;;6282732;22;87486;-72
2023/05/12 07:33:54;;;;;;;1.80;1.08;;;26.60;48.60;;;;;;6284245;22;87996;-72
2023/05/12 07:36:19;;;;;;;3.45;1.00;;;25.40;48.80;;;;;;6285232;22;87406;-73
2023/05/12 07:38:45;;;;;;;2.17;1.33;;;24.80;51.50;;;;;;6285467;22;87099;-72
2023/05/12 07:41:11;;;;;;;1.58;0.90;;;24.10;51.70;;;;;;6284857;22;86962;-72
2023/05/12 07:43:37;;;;;;;1.92;0.93;;;24.00;52.50;;;;;;6284443;22;89035;-72
2023/05/12 07:46:02;;;;;;;2.63;1.70;;;24.20;53.50;;;;;;6282661;22;88044;-73
2023/05/12 07:48:28;;;;;;;2.08;1.45;;;24.00;54.20;;;;;;6284982;22;87186;-72
2023/05/12 07:50:54;;;;;;;4.30;2.33;;;23.60;55.10;;;;;;6285411;22;87622;-72
2023/05/12 07:53:20;;;;;;;2.60;1.92;;;23.30;55.90;;;;;;6283887;22;88326;-77
2023/05/12 07:55:46;;;;;;;3.92;1.50;;;22.80;57.60;;;;;;6284695;22;87377;-74
2023/05/12 07:58:12;;;;;;;2.85;1.50;;;22.60;59.70;;;;;;6285281;22;87023;-74
2023/05/12 08:00:38;;;;;;;2.40;1.67;;;22.40;58.40;;;;;;6283894;22;86316;-78
2023/05/12 08:03:06;;;;;;;2.85;1.65;;;22.20;59.90;;;;;;6283723;22;88080;-75
2023/05/12 08:05:32;;;;;;;1.67;1.00;;;22.00;60.00;;;;;;6284570;22;87781;-74
2023/05/12 08:07:57;;;;;;;2.55;1.50;;;21.70;57.90;;;;;;6284712;22;88198;-75
2023/05/12 08:10:28;;;;;;;2.38;1.20;;;21.40;60.00;;;;;;6283866;22;87440;-74
2023/05/12 08:12:54;;;;;;;2.10;1.30;;;21.00;61.20;;;;;;6284088;22;87543;-75
2023/05/12 08:15:19;;;;;;;2.70;1.45;;;20.80;62.00;;;;;;6284076;22;87516;-74
2023/05/12 08:17:45;;;;;;;6.18;1.58;;;20.70;62.90;;;;;;6281894;22;87556;-74
2023/05/12 08:20:11;;;;;;;4.15;1.85;;;20.50;64.50;;;;;;6281478;22;86933;-75
2023/05/12 08:22:37;;;;;;;3.28;2.03;;;20.30;66.10;;;;;;6282606;22;87604;-74
2023/05/12 08:25:03;;;;;;;3.47;1.83;;;20.00;66.80;;;;;;6284009;22;88104;-77
2023/05/12 08:27:29;;;;;;;3.42;1.77;;;19.90;66.90;;;;;;6284331;22;87274;-80
2023/05/12 08:29:55;;;;;;;2.47;0.98;;;19.60;68.00;;;;;;6284401;22;87055;-75
2023/05/12 08:32:20;;;;;;;2.20;1.23;;;19.40;65.50;;;;;;6281321;22;89211;-78
2023/05/12 08:34:46;;;;;;;1.85;1.25;;;19.30;65.40;;;;;;6284092;22;87217;-76
2023/05/12 08:37:12;;;;;;;2.35;1.15;;;19.40;66.60;;;;;;6284382;22;87534;-77
2023/05/12 08:39:38;;;;;;;1.98;0.80;;;19.40;66.70;;;;;;6285302;22;86996;-75
2023/05/12 08:42:23;;;;;;;1.85;0.95;;;19.50;64.90;;;;;;6284681;22;87620;-77
2023/05/12 08:44:49;;;;;;;2.60;1.17;;;19.40;64.60;;;;;;6282066;22;88497;-76
2023/05/12 08:47:18;;;;;;;2.47;1.13;;;19.30;66.40;;;;;;6282181;22;87579;-75
2023/05/12 08:49:45;;;;;;;2.45;0.88;;;19.00;66.60;;;;;;6281295;22;86186;-76
2023/05/12 08:52:13;;;;;;;3.10;1.80;;;19.10;67.30;;;;;;6280089;22;88462;-75
2023/05/12 08:54:40;;;;;;;5.05;1.33;;;19.00;68.40;;;;;;6283137;22;87016;-78
2023/05/12 08:57:07;;;;;;;3.92;1.80;;;19.00;69.60;;;;;;6278153;22;88249;-79
2023/05/12 08:59:35;;;;;;;3.25;1.83;;;19.00;69.10;;;;;;6277200;22;87622;-79
2023/05/12 09:02:04;;;;;;;2.83;1.52;;;19.00;69.10;;;;;;6278165;22;88056;-76
2023/05/12 09:04:29;;;;;;;3.33;1.98;;;18.80;69.60;;;;;;6278320;22;87404;-78
2023/05/12 09:06:57;;;;;;;4.43;2.20;;;18.80;70.20;;;;;;6279900;22;87240;-78
2023/05/12 09:09:26;;;;;;;3.58;1.83;;;18.80;70.50;;;;;;6283480;22;87004;-75
2023/05/12 09:11:55;;;;;;;7.72;2.10;;;18.80;70.90;;;;;;6283683;22;88046;-78
2023/05/12 09:14:24;;;;;;;4.10;2.47;;;18.40;70.70;;;;;;6284227;22;86617;-77
2023/05/12 09:16:57;;;;;;;3.47;2.22;;;18.40;70.20;;;;;;6282623;22;86904;-78
2023/05/12 09:19:22;;;;;;;3.50;1.88;;;18.50;69.70;;;;;;6282846;22;87112;-76
2023/05/12 09:21:48;;;;;;;5.55;3.38;;;18.60;70.00;;;;;;6279523;22;88945;-76
2023/05/12 09:24:14;;;;;;;5.85;3.42;;;18.60;72.20;;;;;;6283511;22;88977;-77
2023/05/12 09:26:51;;;;;;;7.80;2.88;;;18.70;70.20;;;;;;6257503;22;86920;-77
2023/05/12 09:29:17;;;;;;;4.90;3.00;;;19.00;69.10;;;;;;6257026;22;87228;-78
2023/05/12 09:31:54;;;;;;;3.97;2.42;;;19.30;67.70;;;;;;6283889;22;87742;-77
2023/05/12 09:34:27;;;;;;;3.85;2.42;;;19.50;68.40;;;;;;6283402;22;88149;-77
2023/05/12 09:37:01;;;;;;;4.38;2.70;;;19.90;67.70;;;;;;6283920;22;87033;-77
2023/05/12 09:39:27;;;;;;;3.42;2.28;;;20.40;66.90;;;;;;6283195;22;86770;-76
2023/05/12 09:41:53;;;;;;;3.42;2.42;;;21.00;64.70;;;;;;6283805;22;88224;-79
2023/05/12 09:44:20;;;;;;;4.30;2.40;;;22.20;62.70;;;;;;6283723;22;87498;-78
2023/05/12 09:46:46;;;;;;;2.97;1.92;;;24.00;57.80;;;;;;6283348;22;87897;-79
2023/05/12 09:49:16;;;;;;;2.90;2.40;;;25.10;56.10;;;;;;6284512;22;86860;-81
2023/05/12 09:51:42;;;;;;;3.90;1.95;;;25.70;53.70;;;;;;6284050;22;88077;-79
2023/05/12 09:54:08;;;;;;;4.15;2.67;;;25.30;52.20;;;;;;6281532;22;87619;-78
2023/05/12 09:56:36;;;;;;;3.40;1.73;;;24.80;53.20;;;;;;6283776;22;87269;-78
2023/05/12 09:59:04;;;;;;;2.08;1.52;;;24.80;55.00;;;;;;6283978;22;87395;-80
2023/05/12 10:01:30;;;;;;;1.95;1.23;;;24.60;54.50;;;;;;6283923;22;87897;-78
2023/05/12 10:03:56;;;;;;;2.60;1.40;;;25.00;53.90;;;;;;6282397;22;87615;-78
2023/05/12 10:06:27;;;;;;;1.95;1.20;;;26.00;52.70;;;;;;6284300;22;87375;-80
2023/05/12 10:08:58;;;;;;;2.72;1.23;;;26.80;52.50;;;;;;6280786;22;87253;-78
2023/05/12 10:11:25;;;;;;;2.47;0.98;;;27.80;49.60;;;;;;6282629;22;89202;-82
2023/05/12 10:13:52;;;;;;;2.42;0.85;;;27.30;49.30;;;;;;6283279;22;88457;-78
2023/05/12 10:16:18;;;;;;;2.60;1.00;;;26.60;50.90;;;;;;6283948;22;87016;-79
2023/05/12 10:18:45;;;;;;;2.95;0.98;;;26.50;51.70;;;;;;6281592;22;87480;-78
2023/05/12 10:21:11;;;;;;;2.50;1.40;;;26.00;51.10;;;;;;6279099;22;87110;-76
2023/05/12 10:23:40;;;;;;;2.03;1.20;;;25.40;52.00;;;;;;6253006;22;88569;-79
2023/05/12 10:26:06;;;;;;;1.58;1.05;;;24.80;52.00;;;;;;6279651;22;87402;-78
2023/05/12 10:28:32;;;;;;;1.40;1.02;;;24.40;52.10;;;;;;6280768;22;86171;-79
2023/05/12 10:30:58;;;;;;;2.80;1.17;;;24.60;54.00;;;;;;6282355;22;88626;-79
2023/05/12 10:33:25;;;;;;;2.03;0.93;;;24.60;53.70;;;;;;6280492;22;87476;-78
2023/05/12 10:35:52;;;;;;;1.90;0.90;;;24.30;51.40;;;;;;6281230;22;88297;-78
2023/05/12 10:38:20;;;;;;;1.73;1.17;;;23.90;51.40;;;;;;6281810;22;87156;-78
2023/05/12 10:40:53;;;;;;;1.80;1.13;;;23.80;55.50;;;;;;6278819;22;88440;-79
2023/05/12 10:43:27;;;;;;;1.83;1.17;;;23.90;55.10;;;;;;6250238;22;89397;-78
2023/05/12 10:46:11;;;;;;;2.05;1.02;;;23.80;55.40;;;;;;6278036;22;87604;-80
2023/05/12 10:49:06;;;;;;;2.10;0.95;;;24.00;54.90;;;;;;6279019;22;87418;-76
2023/05/12 10:51:44;;;;;;;2.88;0.90;;;23.90;53.00;;;;;;6280989;22;88038;-79
2023/05/12 10:54:17;;;;;;;1.33;0.77;;;23.50;54.30;;;;;;6281140;22;88260;-80
2023/05/12 10:56:43;;;;;;;1.33;0.73;;;23.60;54.80;;;;;;6280162;22;87094;-78
2023/05/12 10:59:17;;;;;;;1.25;0.63;;;23.60;52.40;;;;;;6277694;22;87085;-76
2023/05/12 11:02:07;;;;;;;1.35;0.82;;;23.30;54.50;;;;;;6243133;22;89468;-78
2023/05/12 11:04:36;;;;;;;1.73;1.20;;;23.00;55.20;;;;;;6274279;22;87678;-79
2023/05/12 11:07:04;;;;;;;2.33;0.68;;;22.80;53.70;;;;;;6272981;22;87796;-78
2023/05/12 11:09:30;;;;;;;1.67;0.60;;;22.80;55.10;;;;;;6276648;22;87402;-79
2023/05/12 11:11:56;;;;;;;1.60;0.90;;;22.90;56.80;;;;;;6277155;22;87472;-78
2023/05/12 11:14:22;;;;;;;1.48;0.70;;;23.00;56.40;;;;;;6278705;22;88115;-79
2023/05/12 11:16:48;;;;;;;2.55;1.20;;;23.10;54.00;;;;;;6278686;22;86914;-77
2023/05/12 11:19:17;;;;;;;4.63;0.88;;;23.30;57.40;;;;;;6279380;22;86392;-78
2023/05/12 11:21:42;;;;;;;2.15;0.88;;;23.10;56.30;;;;;;6277976;22;87658;-79
2023/05/12 11:24:09;;;;;;;2.45;1.02;;;23.30;55.80;;;;;;6275276;22;88162;-79
2023/05/12 11:26:35;;;;;;;2.70;0.73;;;23.20;56.10;;;;;;6277024;22;88264;-80
2023/05/12 11:29:03;;;;;;;2.35;1.05;;;23.10;56.30;;;;;;6277491;22;87745;-80
2023/05/12 11:31:29;;;;;;;1.83;0.93;;;22.90;56.20;;;;;;6277752;22;87724;-79
2023/05/12 11:34:08;;;;;;;3.92;1.08;;;23.00;56.60;;;;;;6277673;22;87383;-81
2023/05/12 11:36:38;;;;;;;1.65;0.88;;;23.00;59.20;;;;;;6277048;22;87301;-79
2023/05/12 11:39:05;;;;;;;2.58;0.90;;;22.80;57.60;;;;;;6278608;22;87316;-79
2023/05/12 11:41:32;;;;;;;2.63;1.00;;;23.00;58.90;;;;;;6278758;22;87552;-79
2023/05/12 11:43:58;;;;;;;1.85;1.10;;;23.50;57.60;;;;;;6278477;22;88359;-78
2023/05/12 11:46:30;;;;;;;1.63;0.65;;;23.80;56.50;;;;;;6278406;22;87320;-77
2023/05/12 11:48:57;;;;;;;2.20;1.02;;;24.10;56.80;;;;;;6278826;22;87398;-78
2023/05/12 11:51:24;;;;;;;3.13;0.82;;;24.60;56.30;;;;;;6275014;22;88714;-78
2023/05/12 11:53:52;;;;;;;1.92;1.02;;;24.50;54.30;;;;;;6275071;22;87271;-81
2023/05/12 11:56:22;;;;;;;3.33;1.00;;;24.60;54.00;;;;;;6278512;22;87056;-79
2023/05/12 11:58:59;;;;;;;2.47;0.82;;;24.60;55.00;;;;;;6279390;22;87716;-80
2023/05/12 12:01:25;;;;;;;1.58;0.70;;;24.40;53.30;;;;;;6268422;22;87860;-76
2023/05/12 12:03:53;;;;;;;1.00;0.60;;;24.10;51.20;;;;;;6273463;22;88210;-79
2023/05/12 12:06:21;;;;;;;2.33;1.20;;;23.90;55.60;;;;;;6278769;22;87342;-81
2023/05/12 12:08:58;;;;;;;1.85;0.85;;;24.00;53.30;;;;;;6281480;22;86741;-80
2023/05/12 12:11:29;;;;;;;2.33;0.70;;;24.10;53.80;;;;;;6278124;22;88586;-77
2023/05/12 12:13:56;;;;;;;2.10;0.73;;;23.60;53.60;;;;;;6278665;22;87947;-83
2023/05/12 12:16:24;;;;;;;2.33;1.00;;;23.30;52.10;;;;;;6276947;22;88493;-81
2023/05/12 12:18:50;;;;;;;3.22;0.85;;;23.30;53.90;;;;;;6241305;22;87652;-80
2023/05/12 12:21:16;;;;;;;1.23;0.32;;;23.50;54.60;;;;;;6277036;22;87884;-81
2023/05/12 12:23:42;;;;;;;1.63;0.45;;;23.60;53.50;;;;;;6275704;22;88182;-80
2023/05/12 12:26:07;;;;;;;2.45;0.90;;;23.80;54.40;;;;;;6277984;22;87547;-83
2023/05/12 12:28:34;;;;;;;2.00;0.73;;;23.50;52.40;;;;;;6277446;22;87479;-85
2023/05/12 12:31:00;;;;;;;1.63;0.82;;;23.50;54.00;;;;;;6275970;22;87814;-80
2023/05/12 12:33:26;;;;;;;4.80;1.52;;;23.70;52.90;;;;;;6275265;22;88188;-79
2023/05/12 12:35:52;;;;;;;5.47;1.73;;;23.70;54.60;;;;;;6277437;22;87405;-80
2023/05/12 12:38:17;;;;;;;2.03;1.33;;;24.10;54.60;;;;;;6274830;22;87008;-79
2023/05/12 12:40:44;;;;;;;3.15;1.60;;;24.30;54.30;;;;;;6277071;22;89665;-78
2023/05/12 12:43:10;;;;;;;2.83;1.05;;;24.10;55.80;;;;;;6277753;22;88817;-79
2023/05/12 12:45:36;;;;;;;2.08;1.65;;;23.80;56.40;;;;;;6277918;22;86943;-79
2023/05/12 12:48:01;;;;;;;3.78;0.95;;;23.60;55.70;;;;;;6279116;22;87481;-81
2023/05/12 12:50:28;;;;;;;2.88;1.05;;;23.20;53.80;;;;;;6277578;22;88346;-79
2023/05/12 12:52:53;;;;;;;1.92;0.95;;;23.10;56.40;;;;;;6279299;22;87789;-79
2023/05/12 12:55:19;;;;;;;2.70;0.93;;;23.00;57.20;;;;;;6279799;22;87140;-79
2023/05/12 12:57:45;;;;;;;3.60;0.93;;;23.30;57.20;;;;;;6281250;22;86597;-80
2023/05/12 13:00:11;;;;;;;2.25;1.00;;;23.40;56.40;;;;;;6280298;22;87908;-81
2023/05/12 13:02:38;;;;;;;3.92;1.02;;;23.50;55.80;;;;;;6280006;22;87401;-80
2023/05/12 13:05:05;;;;;;;2.33;1.02;;;23.50;54.70;;;;;;6279376;22;88499;-79
2023/05/12 13:07:32;;;;;;;2.30;1.23;;;23.70;57.40;;;;;;6280799;22;87251;-80
2023/05/12 13:09:58;;;;;;;3.03;0.90;;;23.70;56.60;;;;;;6279781;22;87093;-80
2023/05/12 13:12:24;;;;;;;2.72;1.15;;;24.00;58.50;;;;;;6280643;22;88302;-80
2023/05/12 13:14:50;;;;;;;3.17;1.45;;;24.00;54.60;;;;;;6279860;22;86887;-80
2023/05/12 13:17:16;;;;;;;2.63;1.00;;;23.90;56.80;;;;;;6279892;22;89687;-79
2023/05/12 13:19:42;;;;;;;1.45;0.85;;;23.80;57.20;;;;;;6279707;22;88142;-79
2023/05/12 13:22:08;;;;;;;1.55;0.70;;;23.50;55.20;;;;;;6281527;22;87378;-79
2023/05/12 13:24:35;;;;;;;1.90;0.57;;;23.00;57.00;;;;;;6252993;22;88373;-78
2023/05/12 13:27:01;;;;;;;2.78;0.73;;;22.60;56.50;;;;;;6279851;22;87433;-79
2023/05/12 13:29:26;;;;;;;1.45;0.22;;;22.30;57.80;;;;;;6279058;22;88567;-78
2023/05/12 13:31:53;;;;;;;1.08;0.13;;;22.00;55.10;;;;;;6279635;22;88790;-78
2023/05/12 13:34:18;;;;;;;0.77;0.22;;;21.90;57.90;;;;;;6280673;22;87237;-78
2023/05/12 13:36:44;;;;;;;0.93;0.38;;;21.60;56.90;;;;;;6253327;22;87491;-78
2023/05/12 13:39:10;;;;;;;1.92;0.93;;;21.40;58.40;;;;;;6279325;22;87657;-78
2023/05/12 13:41:36;;;;;;;0.80;0.30;;;21.60;61.90;;;;;;6279950;22;87550;-78
2023/05/12 13:44:01;;;;;;;4.22;0.70;;;21.70;59.10;;;;;;6280574;22;87437;-80
2023/05/12 13:46:27;;;;;;;1.10;0.55;;;21.80;59.90;;;;;;6281216;22;86293;-79
2023/05/12 13:48:53;;;;;;;1.67;1.10;;;21.70;59.80;;;;;;6280192;22;88531;-78
2023/05/12 13:51:19;;;;;;;1.52;0.75;;;21.90;60.80;;;;;;6280973;22;87575;-82
2023/05/12 13:53:45;;;;;;;1.23;0.63;;;22.10;60.70;;;;;;6279360;22;88271;-78
2023/05/12 13:56:10;;;;;;;2.80;0.57;;;22.30;60.70;;;;;;6280755;22;87392;-80
2023/05/12 13:58:36;;;;;;;5.35;0.63;;;22.50;60.30;;;;;;6279949;22;88267;-79
2023/05/12 14:01:02;;;;;;;0.80;0.22;;;22.40;58.70;;;;;;6278761;22;87429;-79
2023/05/12 14:03:27;;;;;;;2.55;0.80;;;22.30;57.80;;;;;;6280247;22;87324;-79
2023/05/12 14:05:53;;;;;;;1.90;1.17;;;22.70;59.00;;;;;;6281176;22;87141;-79
2023/05/12 14:08:19;;;;;;;1.50;0.50;;;22.80;58.00;;;;;;6278794;22;88096;-79
2023/05/12 14:10:44;;;;;;;2.05;0.30;;;23.00;57.30;;;;;;6279419;22;87554;-80
2023/05/12 14:13:10;;;;;;;1.60;0.52;;;23.10;58.50;;;;;;6280461;22;87297;-79
2023/05/12 14:15:36;;;;;;;0.88;0.43;;;23.20;57.90;;;;;;6251875;22;87628;-79
2023/05/12 14:18:02;;;;;;;1.00;0.40;;;23.00;57.00;;;;;;6276955;22;90595;-80
2023/05/12 14:20:27;;;;;;;0.90;0.38;;;22.80;56.80;;;;;;6277141;22;88752;-79
2023/05/12 14:22:53;;;;;;;1.38;0.25;;;22.70;56.40;;;;;;6278177;22;87000;-80
2023/05/12 14:25:19;;;;;;;0.68;0.15;;;22.70;56.00;;;;;;6277916;22;87364;-79
2023/05/12 14:27:44;;;;;;;1.95;0.17;;;22.50;54.70;;;;;;6277734;22;87912;-78
2023/05/12 14:30:10;;;;;;;1.27;0.60;;;22.30;57.10;;;;;;6278278;22;88043;-79
2023/05/12 14:32:36;;;;;;;0.90;0.43;;;22.10;56.40;;;;;;6277504;22;87251;-78
2023/05/12 14:35:02;;;;;;;0.60;0.20;;;21.90;53.80;;;;;;6278501;22;86912;-79
2023/05/12 14:37:28;;;;;;;0.90;0.13;;;21.90;56.70;;;;;;6277532;22;88858;-79
2023/05/12 14:39:55;;;;;;;0.70;0.22;;;21.80;55.90;;;;;;6277188;22;87733;-78
2023/05/12 14:42:21;;;;;;;0.60;0.10;;;21.50;56.40;;;;;;6278176;22;88125;-80
2023/05/12 14:44:46;;;;;;;0.35;0.10;;;21.20;56.80;;;;;;6277570;22;87259;-79
2023/05/12 14:47:12;;;;;;;0.70;0.20;;;21.00;56.10;;;;;;6276850;22;88665;-79
2023/05/12 14:49:38;;;;;;;1.15;0.10;;;20.80;57.60;;;;;;6277186;22;88228;-79
2023/05/12 14:52:04;;;;;;;1.05;0.20;;;20.80;59.00;;;;;;6278271;22;87283;-79
2023/05/12 14:54:29;;;;;;;0.52;0.10;;;20.80;58.60;;;;;;6277320;22;87329;-79
2023/05/12 14:56:55;;;;;;;1.35;0.30;;;20.90;59.10;;;;;;6277230;22;88466;-79
2023/05/12 14:59:21;;;;;;;0.40;0.10;;;21.00;57.50;;;;;;6277286;22;88741;-78
2023/05/12 15:01:46;;;;;;;0.85;0.10;;;20.90;58.40;;;;;;6277656;22;87299;-80
2023/05/12 15:04:12;;;;;;;0.68;0.20;;;20.80;58.70;;;;;;6278179;22;87301;-78
2023/05/12 15:06:37;;;;;;;1.77;0.10;;;20.80;58.00;;;;;;6275714;22;88478;-79
2023/05/12 15:09:03;;;;;;;0.50;0.10;;;20.90;57.20;;;;;;6276636;22;88244;-78
2023/05/12 15:11:29;;;;;;;0.95;0.32;;;20.90;56.60;;;;;;6278079;22;87350;-79
2023/05/12 15:13:54;;;;;;;1.20;0.13;;;21.10;59.20;;;;;;6280227;22;87418;-80
2023/05/12 15:16:20;;;;;;;0.68;0.10;;;21.30;56.30;;;;;;6252527;22;90052;-79
2023/05/12 15:18:46;;;;;;;2.25;0.30;;;21.50;56.20;;;;;;6278169;22;87697;-78
2023/05/12 15:21:12;;;;;;;1.23;0.32;;;21.60;57.50;;;;;;6279292;22;87290;-78
2023/05/12 15:23:37;;;;;;;0.60;0.10;;;21.70;55.40;;;;;;6279541;22;86650;-79
2023/05/12 15:26:06;;;;;;;0.90;0.20;;;21.80;56.90;;;;;;6279201;22;87726;-78
2023/05/12 15:28:32;;;;;;;1.00;0.30;;;21.60;55.80;;;;;;6278545;22;88085;-78
2023/05/12 15:30:58;;;;;;;0.47;0.10;;;21.40;57.60;;;;;;6277680;22;88258;-79
2023/05/12 15:33:24;;;;;;;0.45;0.10;;;21.10;57.60;;;;;;6280159;22;87409;-78
2023/05/12 15:35:50;;;;;;;0.60;0.10;;;21.10;58.90;;;;;;6279934;22;88570;-80
2023/05/12 15:38:15;;;;;;;1.00;0.22;;;21.00;58.10;;;;;;6279313;22;87485;-78
2023/05/12 15:40:41;;;;;;;0.60;0.20;;;21.00;60.60;;;;;;6278438;22;87333;-78
2023/05/12 15:43:07;;;;;;;1.88;0.20;;;20.70;60.80;;;;;;6278369;22;87281;-79
2023/05/12 15:45:36;;;;;;;1.90;0.20;;;20.60;59.90;;;;;;6277219;22;88571;-77
2023/05/12 15:48:02;;;;;;;1.77;0.20;;;20.50;62.10;;;;;;6280139;22;88189;-78
2023/05/12 15:50:28;;;;;;;2.78;0.20;;;20.30;60.90;;;;;;6278914;22;87545;-76
2023/05/12 15:52:54;;;;;;;0.50;0.10;;;20.10;62.10;;;;;;6279676;22;87462;-78
2023/05/12 15:55:20;;;;;;;0.93;0.20;;;19.90;61.80;;;;;;6277897;22;88572;-78
2023/05/12 15:57:46;;;;;;;0.68;0.13;;;19.70;62.60;;;;;;6279558;22;88101;-78
2023/05/12 16:00:12;;;;;;;0.95;0.22;;;19.80;63.10;;;;;;6277716;22;87319;-77